sensor_id;sensor_type;location;lat;lon;timestamp;temperature;humidity
3727;DHT22;1879;45.876;12.300;2023-09-18T00:00:08;22.40;99.90
3727;DHT22;1879;45.876;12.300;2023-09-18T00:02:39;22.50;99.90
3727;DHT22;1879;45.876;12.300;2023-09-18T00:05:06;22.40;99.90
3727;DHT22;1879;45.876;12.300;2023-09-18T00:07:33;22.40;99.90
3727;DHT22;1879;45.876;12.300;2023-09-18T00:10:00;22.30;99.90
3727;DHT22;1879;45.876;12.300;2023-09-18T00:12:27;22.30;99.90
3727;DHT22;1879;45.876;12.300;2023-09-18T00:14:54;22.30;99.90
3727;DHT22;1879;45.876;12.300;2023-09-18T00:17:21;22.30;99.90
3727;DHT22;1879;45.876;12.300;2023-09-18T00:19:50;22.30;99.90
3727;DHT22;1879;45.876;12.300;2023-09-18T00:22:19;22.40;99.90
3727;DHT22;1879;45.876;12.300;2023-09-18T00:24:47;22.40;99.90
3727;DHT22;1879;45.876;12.300;2023-09-18T00:27:14;22.40;99.90
3727;DHT22;1879;45.876;12.300;2023-09-18T00:29:41;22.40;99.90
3727;DHT22;1879;45.876;12.300;2023-09-18T00:32:08;22.30;99.90
3727;DHT22;1879;45.876;12.300;2023-09-18T00:34:35;22.20;99.90
3727;DHT22;1879;45.876;12.300;2023-09-18T00:37:04;22.20;99.90
3727;DHT22;1879;45.876;12.300;2023-09-18T00:39:34;22.10;99.90
3727;DHT22;1879;45.876;12.300;2023-09-18T00:42:01;22.10;99.90
3727;DHT22;1879;45.876;12.300;2023-09-18T00:44:28;22.10;99.90
3727;DHT22;1879;45.876;12.300;2023-09-18T00:46:55;22.10;99.90
3727;DHT22;1879;45.876;12.300;2023-09-18T00:49:24;22.10;99.90
3727;DHT22;1879;45.876;12.300;2023-09-18T00:51:51;22.10;99.90
3727;DHT22;1879;45.876;12.300;2023-09-18T00:54:20;22.10;99.90
3727;DHT22;1879;45.876;12.300;2023-09-18T00:56:47;22.00;99.90
3727;DHT22;1879;45.876;12.300;2023-09-18T00:59:19;22.00;99.90
3727;DHT22;1879;45.876;12.300;2023-09-18T01:01:48;22.10;99.90
3727;DHT22;1879;45.876;12.300;2023-09-18T01:04:15;22.10;99.90
3727;DHT22;1879;45.876;12.300;2023-09-18T01:06:42;22.10;99.90
3727;DHT22;1879;45.876;12.300;2023-09-18T01:09:09;22.00;99.90
3727;DHT22;1879;45.876;12.300;2023-09-18T01:11:49;22.00;99.90
3727;DHT22;1879;45.876;12.300;2023-09-18T01:14:23;22.10;99.90
3727;DHT22;1879;45.876;12.300;2023-09-18T01:16:56;22.00;99.90
3727;DHT22;1879;45.876;12.300;2023-09-18T01:19:40;22.00;99.90
3727;DHT22;1879;45.876;12.300;2023-09-18T01:22:08;22.00;99.90
3727;DHT22;1879;45.876;12.300;2023-09-18T01:24:38;22.00;99.90
3727;DHT22;1879;45.876;12.300;2023-09-18T01:27:08;22.00;99.90
3727;DHT22;1879;45.876;12.300;2023-09-18T01:29:36;22.00;99.90
3727;DHT22;1879;45.876;12.300;2023-09-18T01:32:04;21.90;99.90
3727;DHT22;1879;45.876;12.300;2023-09-18T01:34:33;21.90;99.90
3727;DHT22;1879;45.876;12.300;2023-09-18T01:37:02;21.90;99.90
3727;DHT22;1879;45.876;12.300;2023-09-18T01:39:30;21.90;99.90
3727;DHT22;1879;45.876;12.300;2023-09-18T01:42:00;21.80;99.90
3727;DHT22;1879;45.876;12.300;2023-09-18T01:44:28;21.80;99.90
3727;DHT22;1879;45.876;12.300;2023-09-18T01:46:58;21.80;99.90
3727;DHT22;1879;45.876;12.300;2023-09-18T01:49:29;21.80;99.90
3727;DHT22;1879;45.876;12.300;2023-09-18T01:51:56;21.80;99.90
3727;DHT22;1879;45.876;12.300;2023-09-18T01:54:23;21.80;99.90
3727;DHT22;1879;45.876;12.300;2023-09-18T01:56:51;21.70;99.90
3727;DHT22;1879;45.876;12.300;2023-09-18T01:59:20;21.70;99.90
3727;DHT22;1879;45.876;12.300;2023-09-18T02:01:48;21.70;99.90
3727;DHT22;1879;45.876;12.300;2023-09-18T02:04:15;21.70;99.90
3727;DHT22;1879;45.876;12.300;2023-09-18T02:06:45;21.70;99.90
3727;DHT22;1879;45.876;12.300;2023-09-18T02:09:13;21.70;99.90
3727;DHT22;1879;45.876;12.300;2023-09-18T02:11:41;21.70;99.90
3727;DHT22;1879;45.876;12.300;2023-09-18T02:14:08;21.70;99.90
3727;DHT22;1879;45.876;12.300;2023-09-18T02:16:38;21.70;99.90
3727;DHT22;1879;45.876;12.300;2023-09-18T02:19:07;21.70;99.90
3727;DHT22;1879;45.876;12.300;2023-09-18T02:21:34;21.80;99.90
3727;DHT22;1879;45.876;12.300;2023-09-18T02:24:01;21.80;99.90
3727;DHT22;1879;45.876;12.300;2023-09-18T02:26:28;21.90;99.90
3727;DHT22;1879;45.876;12.300;2023-09-18T02:29:05;22.00;99.90
3727;DHT22;1879;45.876;12.300;2023-09-18T02:31:32;21.90;99.90
3727;DHT22;1879;45.876;12.300;2023-09-18T02:34:00;21.90;99.90
3727;DHT22;1879;45.876;12.300;2023-09-18T02:36:27;21.90;99.90
3727;DHT22;1879;45.876;12.300;2023-09-18T02:38:54;21.90;99.90
3727;DHT22;1879;45.876;12.300;2023-09-18T02:41:21;21.80;99.90
3727;DHT22;1879;45.876;12.300;2023-09-18T02:43:48;21.80;99.90
3727;DHT22;1879;45.876;12.300;2023-09-18T02:46:15;21.70;99.90
3727;DHT22;1879;45.876;12.300;2023-09-18T02:48:42;21.70;99.90
3727;DHT22;1879;45.876;12.300;2023-09-18T02:51:10;21.70;99.90
3727;DHT22;1879;45.876;12.300;2023-09-18T02:53:37;21.60;99.90
3727;DHT22;1879;45.876;12.300;2023-09-18T02:56:04;21.60;99.90
3727;DHT22;1879;45.876;12.300;2023-09-18T02:58:31;21.50;99.90
3727;DHT22;1879;45.876;12.300;2023-09-18T03:00:58;21.50;99.90
3727;DHT22;1879;45.876;12.300;2023-09-18T03:03:26;21.40;99.90
3727;DHT22;1879;45.876;12.300;2023-09-18T03:05:53;21.40;99.90
3727;DHT22;1879;45.876;12.300;2023-09-18T03:08:21;21.30;99.90
3727;DHT22;1879;45.876;12.300;2023-09-18T03:10:48;21.30;99.90
3727;DHT22;1879;45.876;12.300;2023-09-18T03:13:15;21.20;99.90
3727;DHT22;1879;45.876;12.300;2023-09-18T03:15:45;21.20;99.90
3727;DHT22;1879;45.876;12.300;2023-09-18T03:18:13;21.30;99.90
3727;DHT22;1879;45.876;12.300;2023-09-18T03:20:40;21.30;99.90
3727;DHT22;1879;45.876;12.300;2023-09-18T03:23:07;21.30;99.90
3727;DHT22;1879;45.876;12.300;2023-09-18T03:25:36;21.40;99.90
3727;DHT22;1879;45.876;12.300;2023-09-18T03:28:03;21.50;99.90
3727;DHT22;1879;45.876;12.300;2023-09-18T03:30:30;21.60;99.90
3727;DHT22;1879;45.876;12.300;2023-09-18T03:32:57;21.70;99.90
3727;DHT22;1879;45.876;12.300;2023-09-18T03:35:30;21.80;99.90
3727;DHT22;1879;45.876;12.300;2023-09-18T03:37:58;21.80;99.90
3727;DHT22;1879;45.876;12.300;2023-09-18T03:40:25;21.90;99.90
3727;DHT22;1879;45.876;12.300;2023-09-18T03:42:56;21.90;99.90
3727;DHT22;1879;45.876;12.300;2023-09-18T03:45:23;21.90;99.90
3727;DHT22;1879;45.876;12.300;2023-09-18T03:47:50;21.90;99.90
3727;DHT22;1879;45.876;12.300;2023-09-18T03:50:17;21.90;99.90
3727;DHT22;1879;45.876;12.300;2023-09-18T03:52:44;21.90;99.90
3727;DHT22;1879;45.876;12.300;2023-09-18T03:55:11;21.90;99.90
3727;DHT22;1879;45.876;12.300;2023-09-18T03:57:39;21.80;99.90
3727;DHT22;1879;45.876;12.300;2023-09-18T04:00:08;21.70;99.90
3727;DHT22;1879;45.876;12.300;2023-09-18T04:02:36;21.80;99.90
3727;DHT22;1879;45.876;12.300;2023-09-18T04:05:04;21.80;99.90
3727;DHT22;1879;45.876;12.300;2023-09-18T04:07:32;21.80;99.90
3727;DHT22;1879;45.876;12.300;2023-09-18T04:09:59;21.80;99.90
3727;DHT22;1879;45.876;12.300;2023-09-18T04:12:26;21.90;99.90
3727;DHT22;1879;45.876;12.300;2023-09-18T04:14:53;21.80;99.90
3727;DHT22;1879;45.876;12.300;2023-09-18T04:17:21;21.80;99.90
3727;DHT22;1879;45.876;12.300;2023-09-18T04:19:48;21.80;99.90
3727;DHT22;1879;45.876;12.300;2023-09-18T04:22:15;21.80;99.90
3727;DHT22;1879;45.876;12.300;2023-09-18T04:24:41;21.80;99.90
3727;DHT22;1879;45.876;12.300;2023-09-18T04:27:08;21.70;99.90
3727;DHT22;1879;45.876;12.300;2023-09-18T04:29:35;21.60;99.90
3727;DHT22;1879;45.876;12.300;2023-09-18T04:32:03;21.60;99.90
3727;DHT22;1879;45.876;12.300;2023-09-18T04:34:32;21.60;99.90
3727;DHT22;1879;45.876;12.300;2023-09-18T04:37:00;21.60;99.90
3727;DHT22;1879;45.876;12.300;2023-09-18T04:39:29;21.60;99.90
3727;DHT22;1879;45.876;12.300;2023-09-18T04:42:00;21.60;99.90
3727;DHT22;1879;45.876;12.300;2023-09-18T04:44:29;21.70;99.90
3727;DHT22;1879;45.876;12.300;2023-09-18T04:46:56;21.70;99.90
3727;DHT22;1879;45.876;12.300;2023-09-18T04:49:24;21.80;99.90
3727;DHT22;1879;45.876;12.300;2023-09-18T04:51:53;21.90;99.90
3727;DHT22;1879;45.876;12.300;2023-09-18T04:54:20;21.90;99.90
3727;DHT22;1879;45.876;12.300;2023-09-18T04:56:47;21.90;99.90
3727;DHT22;1879;45.876;12.300;2023-09-18T04:59:14;22.00;99.90
3727;DHT22;1879;45.876;12.300;2023-09-18T05:01:41;22.00;99.90
3727;DHT22;1879;45.876;12.300;2023-09-18T05:04:09;22.10;99.90
3727;DHT22;1879;45.876;12.300;2023-09-18T05:06:36;22.10;99.90
3727;DHT22;1879;45.876;12.300;2023-09-18T05:09:06;22.20;99.90
3727;DHT22;1879;45.876;12.300;2023-09-18T05:11:33;22.20;99.90
3727;DHT22;1879;45.876;12.300;2023-09-18T05:14:01;22.20;99.90
3727;DHT22;1879;45.876;12.300;2023-09-18T05:16:28;22.30;99.90
3727;DHT22;1879;45.876;12.300;2023-09-18T05:18:55;22.30;99.90
3727;DHT22;1879;45.876;12.300;2023-09-18T05:21:22;22.30;99.90
3727;DHT22;1879;45.876;12.300;2023-09-18T05:23:51;22.40;99.90
3727;DHT22;1879;45.876;12.300;2023-09-18T05:26:20;22.40;99.90
3727;DHT22;1879;45.876;12.300;2023-09-18T05:28:50;22.50;99.90
3727;DHT22;1879;45.876;12.300;2023-09-18T05:31:17;22.50;99.90
3727;DHT22;1879;45.876;12.300;2023-09-18T05:33:44;22.50;99.90
3727;DHT22;1879;45.876;12.300;2023-09-18T05:36:13;22.50;99.90
3727;DHT22;1879;45.876;12.300;2023-09-18T05:38:40;22.50;99.90
3727;DHT22;1879;45.876;12.300;2023-09-18T05:41:06;22.50;99.90
3727;DHT22;1879;45.876;12.300;2023-09-18T05:43:34;22.60;99.90
3727;DHT22;1879;45.876;12.300;2023-09-18T05:46:01;22.70;99.90
3727;DHT22;1879;45.876;12.300;2023-09-18T05:48:28;22.80;99.90
3727;DHT22;1879;45.876;12.300;2023-09-18T05:50:55;22.80;99.90
3727;DHT22;1879;45.876;12.300;2023-09-18T05:53:22;22.90;99.90
3727;DHT22;1879;45.876;12.300;2023-09-18T05:55:49;23.00;99.90
3727;DHT22;1879;45.876;12.300;2023-09-18T05:58:16;23.20;99.90
3727;DHT22;1879;45.876;12.300;2023-09-18T06:00:49;23.40;99.90
3727;DHT22;1879;45.876;12.300;2023-09-18T06:03:18;23.60;99.90
3727;DHT22;1879;45.876;12.300;2023-09-18T06:05:47;23.70;99.90
3727;DHT22;1879;45.876;12.300;2023-09-18T06:08:14;23.90;99.90
3727;DHT22;1879;45.876;12.300;2023-09-18T06:10:41;23.90;99.90
3727;DHT22;1879;45.876;12.300;2023-09-18T06:13:08;23.90;99.90
3727;DHT22;1879;45.876;12.300;2023-09-18T06:15:35;24.00;99.90
3727;DHT22;1879;45.876;12.300;2023-09-18T06:18:03;24.10;99.90
3727;DHT22;1879;45.876;12.300;2023-09-18T06:20:32;24.20;99.90
3727;DHT22;1879;45.876;12.300;2023-09-18T06:22:59;24.30;99.90
3727;DHT22;1879;45.876;12.300;2023-09-18T06:25:26;24.40;99.90
3727;DHT22;1879;45.876;12.300;2023-09-18T06:27:53;24.50;99.90
3727;DHT22;1879;45.876;12.300;2023-09-18T06:30:20;24.50;99.90
3727;DHT22;1879;45.876;12.300;2023-09-18T06:32:47;24.60;99.90
3727;DHT22;1879;45.876;12.300;2023-09-18T06:35:15;24.70;99.90
3727;DHT22;1879;45.876;12.300;2023-09-18T06:37:42;24.80;99.90
3727;DHT22;1879;45.876;12.300;2023-09-18T06:40:10;24.90;99.90
3727;DHT22;1879;45.876;12.300;2023-09-18T06:42:37;24.90;99.90
3727;DHT22;1879;45.876;12.300;2023-09-18T06:45:05;24.90;99.90
3727;DHT22;1879;45.876;12.300;2023-09-18T06:47:33;24.80;99.90
3727;DHT22;1879;45.876;12.300;2023-09-18T06:50:00;24.60;99.90
3727;DHT22;1879;45.876;12.300;2023-09-18T06:52:31;24.40;99.90
3727;DHT22;1879;45.876;12.300;2023-09-18T06:54:58;24.40;99.90
3727;DHT22;1879;45.876;12.300;2023-09-18T06:57:25;24.50;99.90
3727;DHT22;1879;45.876;12.300;2023-09-18T06:59:53;24.50;99.90
3727;DHT22;1879;45.876;12.300;2023-09-18T07:02:20;24.40;99.90
3727;DHT22;1879;45.876;12.300;2023-09-18T07:04:47;24.30;99.90
3727;DHT22;1879;45.876;12.300;2023-09-18T07:07:15;24.40;99.90
3727;DHT22;1879;45.876;12.300;2023-09-18T07:09:43;24.60;99.90
3727;DHT22;1879;45.876;12.300;2023-09-18T07:12:10;24.70;99.90
3727;DHT22;1879;45.876;12.300;2023-09-18T07:14:37;24.80;99.90
3727;DHT22;1879;45.876;12.300;2023-09-18T07:17:04;24.90;99.90
3727;DHT22;1879;45.876;12.300;2023-09-18T07:19:31;25.00;99.90
3727;DHT22;1879;45.876;12.300;2023-09-18T07:21:59;25.00;99.90
3727;DHT22;1879;45.876;12.300;2023-09-18T07:24:29;25.10;99.90
3727;DHT22;1879;45.876;12.300;2023-09-18T07:26:57;25.10;99.90
3727;DHT22;1879;45.876;12.300;2023-09-18T07:29:25;25.10;99.90
3727;DHT22;1879;45.876;12.300;2023-09-18T07:31:52;25.10;99.90
3727;DHT22;1879;45.876;12.300;2023-09-18T07:34:19;25.00;99.90
3727;DHT22;1879;45.876;12.300;2023-09-18T07:36:46;25.10;99.90
3727;DHT22;1879;45.876;12.300;2023-09-18T07:39:13;25.10;99.90
3727;DHT22;1879;45.876;12.300;2023-09-18T07:41:40;25.00;99.90
3727;DHT22;1879;45.876;12.300;2023-09-18T07:44:08;25.00;99.90
3727;DHT22;1879;45.876;12.300;2023-09-18T07:46:35;24.90;99.90
3727;DHT22;1879;45.876;12.300;2023-09-18T07:49:02;24.80;99.90
3727;DHT22;1879;45.876;12.300;2023-09-18T07:51:29;24.80;99.90
3727;DHT22;1879;45.876;12.300;2023-09-18T07:53:56;24.70;99.90
3727;DHT22;1879;45.876;12.300;2023-09-18T07:56:23;24.80;99.90
3727;DHT22;1879;45.876;12.300;2023-09-18T07:58:50;24.80;99.90
3727;DHT22;1879;45.876;12.300;2023-09-18T08:01:19;24.80;99.90
3727;DHT22;1879;45.876;12.300;2023-09-18T08:03:48;24.60;99.90
3727;DHT22;1879;45.876;12.300;2023-09-18T08:06:15;24.70;99.90
3727;DHT22;1879;45.876;12.300;2023-09-18T08:08:44;24.80;99.90
3727;DHT22;1879;45.876;12.300;2023-09-18T08:11:12;24.90;99.90
3727;DHT22;1879;45.876;12.300;2023-09-18T08:13:39;24.90;99.90
3727;DHT22;1879;45.876;12.300;2023-09-18T08:16:06;24.80;99.90
3727;DHT22;1879;45.876;12.300;2023-09-18T08:18:35;24.70;99.90
3727;DHT22;1879;45.876;12.300;2023-09-18T08:21:06;24.80;99.90
3727;DHT22;1879;45.876;12.300;2023-09-18T08:23:34;24.90;99.90
3727;DHT22;1879;45.876;12.300;2023-09-18T08:26:02;24.90;99.90
3727;DHT22;1879;45.876;12.300;2023-09-18T08:28:29;24.90;99.90
3727;DHT22;1879;45.876;12.300;2023-09-18T08:30:56;25.00;99.90
3727;DHT22;1879;45.876;12.300;2023-09-18T08:33:24;25.00;99.90
3727;DHT22;1879;45.876;12.300;2023-09-18T08:35:52;25.00;99.90
3727;DHT22;1879;45.876;12.300;2023-09-18T08:38:20;25.00;99.90
3727;DHT22;1879;45.876;12.300;2023-09-18T08:40:47;25.00;99.90
3727;DHT22;1879;45.876;12.300;2023-09-18T08:43:15;25.10;99.90
3727;DHT22;1879;45.876;12.300;2023-09-18T08:45:46;25.20;99.90
3727;DHT22;1879;45.876;12.300;2023-09-18T08:48:16;25.40;99.90
3727;DHT22;1879;45.876;12.300;2023-09-18T08:50:45;25.60;99.90
3727;DHT22;1879;45.876;12.300;2023-09-18T08:53:14;25.70;99.90
3727;DHT22;1879;45.876;12.300;2023-09-18T08:55:41;25.80;99.90
3727;DHT22;1879;45.876;12.300;2023-09-18T08:58:08;26.10;99.90
3727;DHT22;1879;45.876;12.300;2023-09-18T09:00:37;26.30;99.90
3727;DHT22;1879;45.876;12.300;2023-09-18T09:03:04;26.60;99.90
3727;DHT22;1879;45.876;12.300;2023-09-18T09:05:31;26.90;99.90
3727;DHT22;1879;45.876;12.300;2023-09-18T09:07:58;27.00;99.90
3727;DHT22;1879;45.876;12.300;2023-09-18T09:10:28;27.10;99.90
3727;DHT22;1879;45.876;12.300;2023-09-18T09:12:56;27.10;99.90
3727;DHT22;1879;45.876;12.300;2023-09-18T09:15:25;27.10;99.90
3727;DHT22;1879;45.876;12.300;2023-09-18T09:18:02;27.10;99.90
3727;DHT22;1879;45.876;12.300;2023-09-18T09:20:31;27.20;99.90
3727;DHT22;1879;45.876;12.300;2023-09-18T09:23:01;27.10;99.90
3727;DHT22;1879;45.876;12.300;2023-09-18T09:25:30;26.90;99.90
3727;DHT22;1879;45.876;12.300;2023-09-18T09:27:59;26.70;99.90
3727;DHT22;1879;45.876;12.300;2023-09-18T09:30:28;26.60;99.90
3727;DHT22;1879;45.876;12.300;2023-09-18T09:32:57;26.40;99.90
3727;DHT22;1879;45.876;12.300;2023-09-18T09:35:25;26.40;99.90
3727;DHT22;1879;45.876;12.300;2023-09-18T09:37:56;26.30;99.90
3727;DHT22;1879;45.876;12.300;2023-09-18T09:40:24;26.20;99.90
3727;DHT22;1879;45.876;12.300;2023-09-18T09:42:54;26.10;99.90
3727;DHT22;1879;45.876;12.300;2023-09-18T09:45:27;26.00;99.90
3727;DHT22;1879;45.876;12.300;2023-09-18T09:47:56;25.90;99.90
3727;DHT22;1879;45.876;12.300;2023-09-18T09:50:23;25.70;99.90
3727;DHT22;1879;45.876;12.300;2023-09-18T09:52:52;25.70;99.90
3727;DHT22;1879;45.876;12.300;2023-09-18T09:55:22;25.70;99.90
3727;DHT22;1879;45.876;12.300;2023-09-18T09:57:53;25.60;99.90
3727;DHT22;1879;45.876;12.300;2023-09-18T10:00:23;25.60;99.90
3727;DHT22;1879;45.876;12.300;2023-09-18T10:03:00;25.60;99.90
3727;DHT22;1879;45.876;12.300;2023-09-18T10:05:32;25.60;99.90
3727;DHT22;1879;45.876;12.300;2023-09-18T10:08:03;25.70;99.90
3727;DHT22;1879;45.876;12.300;2023-09-18T10:10:36;25.70;99.90
3727;DHT22;1879;45.876;12.300;2023-09-18T10:13:16;25.70;99.90
3727;DHT22;1879;45.876;12.300;2023-09-18T10:15:45;25.70;99.90
3727;DHT22;1879;45.876;12.300;2023-09-18T10:18:19;25.70;99.90
3727;DHT22;1879;45.876;12.300;2023-09-18T10:20:51;25.80;99.90
3727;DHT22;1879;45.876;12.300;2023-09-18T10:23:30;26.00;99.90
3727;DHT22;1879;45.876;12.300;2023-09-18T10:26:02;26.20;99.90
3727;DHT22;1879;45.876;12.300;2023-09-18T10:28:32;26.40;99.90
3727;DHT22;1879;45.876;12.300;2023-09-18T10:31:00;26.70;99.90
3727;DHT22;1879;45.876;12.300;2023-09-18T10:33:30;27.10;99.90
3727;DHT22;1879;45.876;12.300;2023-09-18T10:35:57;27.30;99.90
3727;DHT22;1879;45.876;12.300;2023-09-18T10:38:29;27.30;99.90
3727;DHT22;1879;45.876;12.300;2023-09-18T10:40:58;27.10;99.90
3727;DHT22;1879;45.876;12.300;2023-09-18T10:43:26;27.00;99.90
3727;DHT22;1879;45.876;12.300;2023-09-18T10:45:54;26.90;99.90
3727;DHT22;1879;45.876;12.300;2023-09-18T10:48:22;26.70;99.90
3727;DHT22;1879;45.876;12.300;2023-09-18T10:50:51;26.60;99.90
3727;DHT22;1879;45.876;12.300;2023-09-18T10:53:18;26.50;99.90
3727;DHT22;1879;45.876;12.300;2023-09-18T10:55:48;26.40;99.90
3727;DHT22;1879;45.876;12.300;2023-09-18T10:58:23;26.20;99.90
3727;DHT22;1879;45.876;12.300;2023-09-18T11:00:54;26.20;99.90
3727;DHT22;1879;45.876;12.300;2023-09-18T11:03:24;26.10;99.90
3727;DHT22;1879;45.876;12.300;2023-09-18T11:06:03;25.90;99.90
3727;DHT22;1879;45.876;12.300;2023-09-18T11:08:32;25.90;99.90
3727;DHT22;1879;45.876;12.300;2023-09-18T11:11:03;25.90;99.90
3727;DHT22;1879;45.876;12.300;2023-09-18T11:13:39;25.80;99.90
3727;DHT22;1879;45.876;12.300;2023-09-18T11:16:20;25.70;99.90
3727;DHT22;1879;45.876;12.300;2023-09-18T11:19:07;25.80;99.90
3727;DHT22;1879;45.876;12.300;2023-09-18T11:21:36;25.90;99.90
3727;DHT22;1879;45.876;12.300;2023-09-18T11:24:05;26.20;99.90
3727;DHT22;1879;45.876;12.300;2023-09-18T11:26:33;26.40;99.90
3727;DHT22;1879;45.876;12.300;2023-09-18T11:29:00;26.60;99.90
3727;DHT22;1879;45.876;12.300;2023-09-18T11:31:47;26.80;99.90
3727;DHT22;1879;45.876;12.300;2023-09-18T11:34:15;27.00;99.90
3727;DHT22;1879;45.876;12.300;2023-09-18T11:36:46;27.10;99.90
3727;DHT22;1879;45.876;12.300;2023-09-18T11:39:13;27.20;99.90
3727;DHT22;1879;45.876;12.300;2023-09-18T11:42:07;27.30;99.90
3727;DHT22;1879;45.876;12.300;2023-09-18T11:44:34;27.40;99.90
3727;DHT22;1879;45.876;12.300;2023-09-18T11:47:07;27.50;99.90
3727;DHT22;1879;45.876;12.300;2023-09-18T11:49:41;27.50;99.90
3727;DHT22;1879;45.876;12.300;2023-09-18T11:52:13;27.50;99.90
3727;DHT22;1879;45.876;12.300;2023-09-18T11:54:40;27.40;99.90
3727;DHT22;1879;45.876;12.300;2023-09-18T11:57:09;27.50;99.90
3727;DHT22;1879;45.876;12.300;2023-09-18T11:59:38;27.80;99.90
3727;DHT22;1879;45.876;12.300;2023-09-18T12:02:06;29.50;99.90
3727;DHT22;1879;45.876;12.300;2023-09-18T12:04:34;31.40;99.90
3727;DHT22;1879;45.876;12.300;2023-09-18T12:07:03;32.70;99.90
3727;DHT22;1879;45.876;12.300;2023-09-18T12:09:30;32.80;99.60
3727;DHT22;1879;45.876;12.300;2023-09-18T12:11:58;32.30;98.80
3727;DHT22;1879;45.876;12.300;2023-09-18T12:14:30;31.80;98.80
3727;DHT22;1879;45.876;12.300;2023-09-18T12:16:59;31.70;99.00
3727;DHT22;1879;45.876;12.300;2023-09-18T12:19:28;31.30;98.90
3727;DHT22;1879;45.876;12.300;2023-09-18T12:21:55;30.90;99.20
3727;DHT22;1879;45.876;12.300;2023-09-18T12:24:22;30.70;99.40
3727;DHT22;1879;45.876;12.300;2023-09-18T12:26:50;30.60;99.80
3727;DHT22;1879;45.876;12.300;2023-09-18T12:29:18;30.40;99.60
3727;DHT22;1879;45.876;12.300;2023-09-18T12:31:45;30.90;99.80
3727;DHT22;1879;45.876;12.300;2023-09-18T12:34:16;31.30;99.10
3727;DHT22;1879;45.876;12.300;2023-09-18T12:36:45;30.70;99.00
3727;DHT22;1879;45.876;12.300;2023-09-18T12:39:13;30.00;99.50
3727;DHT22;1879;45.876;12.300;2023-09-18T12:41:42;29.50;99.90
3727;DHT22;1879;45.876;12.300;2023-09-18T12:44:10;29.10;99.90
3727;DHT22;1879;45.876;12.300;2023-09-18T12:46:38;28.70;99.90
3727;DHT22;1879;45.876;12.300;2023-09-18T12:49:18;28.30;99.90
3727;DHT22;1879;45.876;12.300;2023-09-18T12:51:55;27.90;99.90
3727;DHT22;1879;45.876;12.300;2023-09-18T12:54:39;27.60;99.90
3727;DHT22;1879;45.876;12.300;2023-09-18T12:57:09;27.30;99.90
3727;DHT22;1879;45.876;12.300;2023-09-18T12:59:37;27.00;99.90
3727;DHT22;1879;45.876;12.300;2023-09-18T13:02:04;26.90;99.90
3727;DHT22;1879;45.876;12.300;2023-09-18T13:04:32;26.90;99.90
3727;DHT22;1879;45.876;12.300;2023-09-18T13:07:10;26.80;99.90
3727;DHT22;1879;45.876;12.300;2023-09-18T13:09:37;26.70;99.90
3727;DHT22;1879;45.876;12.300;2023-09-18T13:12:05;26.60;99.90
3727;DHT22;1879;45.876;12.300;2023-09-18T13:15:00;26.50;99.90
3727;DHT22;1879;45.876;12.300;2023-09-18T13:17:37;26.50;99.90
3727;DHT22;1879;45.876;12.300;2023-09-18T13:20:11;26.50;99.90
3727;DHT22;1879;45.876;12.300;2023-09-18T13:22:40;26.50;99.90
3727;DHT22;1879;45.876;12.300;2023-09-18T13:25:08;26.50;99.90
3727;DHT22;1879;45.876;12.300;2023-09-18T13:27:36;26.50;99.90
3727;DHT22;1879;45.876;12.300;2023-09-18T13:30:05;26.60;99.90
3727;DHT22;1879;45.876;12.300;2023-09-18T13:32:37;26.70;99.90
3727;DHT22;1879;45.876;12.300;2023-09-18T13:35:04;26.80;99.90
3727;DHT22;1879;45.876;12.300;2023-09-18T13:37:32;26.90;99.90
3727;DHT22;1879;45.876;12.300;2023-09-18T13:40:01;26.90;99.90
3727;DHT22;1879;45.876;12.300;2023-09-18T13:42:28;27.00;99.90
3727;DHT22;1879;45.876;12.300;2023-09-18T13:44:57;27.00;99.90
3727;DHT22;1879;45.876;12.300;2023-09-18T13:47:26;27.10;99.90
3727;DHT22;1879;45.876;12.300;2023-09-18T13:49:54;27.10;99.90
3727;DHT22;1879;45.876;12.300;2023-09-18T13:52:22;27.00;99.90
3727;DHT22;1879;45.876;12.300;2023-09-18T13:54:50;27.00;99.90
3727;DHT22;1879;45.876;12.300;2023-09-18T13:57:19;26.90;99.90
3727;DHT22;1879;45.876;12.300;2023-09-18T13:59:47;26.90;99.90
3727;DHT22;1879;45.876;12.300;2023-09-18T14:02:16;26.90;99.90
3727;DHT22;1879;45.876;12.300;2023-09-18T14:04:43;26.90;99.90
3727;DHT22;1879;45.876;12.300;2023-09-18T14:07:11;26.70;99.90
3727;DHT22;1879;45.876;12.300;2023-09-18T14:09:39;26.70;99.90
3727;DHT22;1879;45.876;12.300;2023-09-18T14:12:06;26.70;99.90
3727;DHT22;1879;45.876;12.300;2023-09-18T14:14:35;26.60;99.90
3727;DHT22;1879;45.876;12.300;2023-09-18T14:17:02;26.60;99.90
3727;DHT22;1879;45.876;12.300;2023-09-18T14:19:30;26.60;99.90
3727;DHT22;1879;45.876;12.300;2023-09-18T14:21:57;26.60;99.90
3727;DHT22;1879;45.876;12.300;2023-09-18T14:24:29;26.70;99.90
3727;DHT22;1879;45.876;12.300;2023-09-18T14:26:56;26.80;99.90
3727;DHT22;1879;45.876;12.300;2023-09-18T14:29:23;26.90;99.90
3727;DHT22;1879;45.876;12.300;2023-09-18T14:31:52;27.00;99.90
3727;DHT22;1879;45.876;12.300;2023-09-18T14:34:19;27.00;99.90
3727;DHT22;1879;45.876;12.300;2023-09-18T14:36:46;26.90;99.90
3727;DHT22;1879;45.876;12.300;2023-09-18T14:39:13;26.90;99.90
3727;DHT22;1879;45.876;12.300;2023-09-18T14:41:40;26.70;99.90
3727;DHT22;1879;45.876;12.300;2023-09-18T14:44:08;26.60;99.90
3727;DHT22;1879;45.876;12.300;2023-09-18T14:46:36;26.50;99.90
3727;DHT22;1879;45.876;12.300;2023-09-18T14:49:05;26.40;99.90
3727;DHT22;1879;45.876;12.300;2023-09-18T14:51:33;26.30;99.90
3727;DHT22;1879;45.876;12.300;2023-09-18T14:54:01;26.20;99.90
3727;DHT22;1879;45.876;12.300;2023-09-18T14:56:29;26.10;99.90
3727;DHT22;1879;45.876;12.300;2023-09-18T14:58:56;26.00;99.90
3727;DHT22;1879;45.876;12.300;2023-09-18T15:01:24;26.00;99.90
3727;DHT22;1879;45.876;12.300;2023-09-18T15:03:51;25.70;99.90
3727;DHT22;1879;45.876;12.300;2023-09-18T15:06:19;25.50;99.90
3727;DHT22;1879;45.876;12.300;2023-09-18T15:08:46;25.40;99.90
3727;DHT22;1879;45.876;12.300;2023-09-18T15:11:13;25.30;99.90
3727;DHT22;1879;45.876;12.300;2023-09-18T15:13:42;25.20;99.90
3727;DHT22;1879;45.876;12.300;2023-09-18T15:16:09;25.00;99.90
3727;DHT22;1879;45.876;12.300;2023-09-18T15:18:36;24.80;99.90
3727;DHT22;1879;45.876;12.300;2023-09-18T15:21:03;24.70;99.90
3727;DHT22;1879;45.876;12.300;2023-09-18T15:23:32;24.60;99.90
3727;DHT22;1879;45.876;12.300;2023-09-18T15:25:59;24.50;99.90
3727;DHT22;1879;45.876;12.300;2023-09-18T15:28:27;24.40;99.90
3727;DHT22;1879;45.876;12.300;2023-09-18T15:30:55;24.40;99.90
3727;DHT22;1879;45.876;12.300;2023-09-18T15:33:22;24.40;99.90
3727;DHT22;1879;45.876;12.300;2023-09-18T15:35:51;24.40;99.90
3727;DHT22;1879;45.876;12.300;2023-09-18T15:38:19;24.40;99.90
3727;DHT22;1879;45.876;12.300;2023-09-18T15:40:48;24.50;99.90
3727;DHT22;1879;45.876;12.300;2023-09-18T15:43:17;24.50;99.90
3727;DHT22;1879;45.876;12.300;2023-09-18T15:45:45;24.60;99.90
3727;DHT22;1879;45.876;12.300;2023-09-18T15:48:12;24.70;99.90
3727;DHT22;1879;45.876;12.300;2023-09-18T15:50:39;24.90;99.90
3727;DHT22;1879;45.876;12.300;2023-09-18T15:53:07;25.00;99.90